Time;durP1;ratioP1;P1;durP2;ratioP2;P2;SDS_P1;SDS_P2;PMS_P1;PMS_P2;Temp;Humidity;BMP_temperature;BMP_pressure;BME280_temperature;BME280_humidity;BME280_pressure;Samples;Min_cycle;Max_cycle;Signal;HPM_P1;HPM_P2
2023/07/03 00:01:14;;;;;;;7.67;6.17;;;;;;;;;;761615;181;928212;-61
2023/07/03 00:03:39;;;;;;;12.10;7.43;;;;;;;;;;763501;181;918976;-62
2023/07/03 00:06:05;;;;;;;9.40;6.30;;;;;;;;;;765764;182;812786;-66
2023/07/03 00:08:31;;;;;;;12.70;5.90;;;;;;;;;;771718;181;915176;-66
2023/07/03 00:10:59;;;;;;;9.17;6.53;;;;;;;;;;762268;182;915237;-66
2023/07/03 00:13:24;;;;;;;8.13;5.90;;;;;;;;;;765342;182;813370;-66
2023/07/03 00:15:50;;;;;;;10.50;6.50;;;;;;;;;;767279;182;913013;-62
2023/07/03 00:18:16;;;;;;;15.83;7.90;;;;;;;;;;762418;182;876955;-66
2023/07/03 00:20:42;;;;;;;8.23;6.00;;;;;;;;;;763007;181;818940;-66
2023/07/03 00:23:08;;;;;;;14.53;7.00;;;;;;;;;;766207;182;916449;-66
2023/07/03 00:25:34;;;;;;;9.90;5.70;;;;;;;;;;747234;186;915451;-62
2023/07/03 00:27:59;;;;;;;8.67;6.10;;;;;;;;;;763411;181;918509;-62
2023/07/03 00:30:25;;;;;;;15.27;6.93;;;;;;;;;;765299;182;919075;-62
2023/07/03 00:32:51;;;;;;;9.90;6.05;;;;;;;;;;751460;181;940887;-67
2023/07/03 00:35:17;;;;;;;15.10;6.80;;;;;;;;;;752997;184;918788;-62
2023/07/03 00:37:43;;;;;;;7.20;6.07;;;;;;;;;;755475;182;919252;-65
2023/07/03 00:40:10;;;;;;;9.27;6.40;;;;;;;;;;762860;182;918649;-65
2023/07/03 00:42:36;;;;;;;12.87;7.27;;;;;;;;;;762943;182;918866;-62
2023/07/03 00:45:01;;;;;;;9.97;5.63;;;;;;;;;;760089;184;919257;-62
2023/07/03 00:47:27;;;;;;;10.77;7.00;;;;;;;;;;767563;182;918741;-62
2023/07/03 00:49:53;;;;;;;15.47;7.70;;;;;;;;;;760412;182;920425;-66
2023/07/03 00:52:18;;;;;;;10.90;7.20;;;;;;;;;;760732;182;920079;-62
2023/07/03 00:54:44;;;;;;;12.43;7.17;;;;;;;;;;762664;182;816571;-65
2023/07/03 00:57:10;;;;;;;8.53;6.50;;;;;;;;;;768841;181;919464;-63
2023/07/03 00:59:36;;;;;;;12.33;6.90;;;;;;;;;;763000;182;919218;-66
2023/07/03 01:02:03;;;;;;;10.77;6.75;;;;;;;;;;761987;182;919539;-65
2023/07/03 01:04:30;;;;;;;10.70;7.10;;;;;;;;;;768521;182;919172;-62
2023/07/03 01:06:56;;;;;;;13.00;5.90;;;;;;;;;;760282;182;918539;-62
2023/07/03 01:09:21;;;;;;;10.10;6.28;;;;;;;;;;752894;181;918499;-65
2023/07/03 01:11:47;;;;;;;8.70;7.10;;;;;;;;;;761476;182;815967;-65
2023/07/03 01:14:12;;;;;;;10.20;7.20;;;;;;;;;;766965;182;870290;-66
2023/07/03 01:16:38;;;;;;;10.65;6.03;;;;;;;;;;764356;182;916147;-65
2023/07/03 01:19:04;;;;;;;8.45;5.45;;;;;;;;;;765461;182;896329;-62
2023/07/03 01:21:30;;;;;;;11.33;6.97;;;;;;;;;;768333;182;917404;-65
2023/07/03 01:23:57;;;;;;;7.20;5.40;;;;;;;;;;766559;180;924576;-62
2023/07/03 01:26:23;;;;;;;15.13;8.73;;;;;;;;;;762926;182;917988;-62
2023/07/03 01:28:49;;;;;;;9.40;5.80;;;;;;;;;;771038;181;918893;-65
2023/07/03 01:31:15;;;;;;;6.77;5.80;;;;;;;;;;758285;179;916274;-65
2023/07/03 01:33:44;;;;;;;7.53;5.77;;;;;;;;;;750147;186;919983;-62
2023/07/03 01:36:06;;;;;;;12.80;5.83;;;;;;;;;;758091;182;919303;-62
2023/07/03 01:38:32;;;;;;;9.00;6.37;;;;;;;;;;757526;182;920237;-64
2023/07/03 01:40:58;;;;;;;9.23;6.80;;;;;;;;;;758821;182;920641;-62
2023/07/03 01:43:24;;;;;;;14.37;5.83;;;;;;;;;;769343;180;919119;-61
2023/07/03 01:45:50;;;;;;;22.00;7.40;;;;;;;;;;760932;181;920256;-61
2023/07/03 01:48:16;;;;;;;9.97;5.53;;;;;;;;;;757178;184;917092;-65
2023/07/03 01:50:42;;;;;;;12.88;6.78;;;;;;;;;;756485;182;919098;-64
2023/07/03 01:53:10;;;;;;;14.93;6.73;;;;;;;;;;762829;182;919538;-65
2023/07/03 01:55:43;;;;;;;14.87;7.00;;;;;;;;;;764792;181;918885;-61
2023/07/03 01:58:10;;;;;;;11.63;6.20;;;;;;;;;;763394;182;915149;-64
2023/07/03 02:00:40;;;;;;;12.10;6.60;;;;;;;;;;759673;182;916051;-61
2023/07/03 02:03:05;;;;;;;13.97;6.73;;;;;;;;;;764829;182;913696;-62
2023/07/03 02:05:32;;;;;;;9.97;6.33;;;;;;;;;;765367;182;812694;-61
2023/07/03 02:07:57;;;;;;;15.73;7.50;;;;;;;;;;757669;182;914677;-61
2023/07/03 02:10:23;;;;;;;15.13;7.20;;;;;;;;;;767375;183;883512;-61
2023/07/03 02:12:49;;;;;;;14.90;7.03;;;;;;;;;;758998;182;866034;-64
2023/07/03 02:15:15;;;;;;;18.57;7.50;;;;;;;;;;763518;182;915597;-62
2023/07/03 02:17:40;;;;;;;11.73;6.83;;;;;;;;;;762997;182;919820;-62
2023/07/03 02:20:13;;;;;;;9.67;5.83;;;;;;;;;;759224;182;917622;-64
2023/07/03 02:22:33;;;;;;;10.23;6.33;;;;;;;;;;760926;182;919450;-61
2023/07/03 02:24:58;;;;;;;10.23;6.73;;;;;;;;;;762551;182;914715;-61
2023/07/03 02:27:24;;;;;;;14.77;7.20;;;;;;;;;;774187;182;915830;-65
2023/07/03 02:29:50;;;;;;;14.00;6.93;;;;;;;;;;760552;182;915134;-63
2023/07/03 02:32:16;;;;;;;20.63;8.13;;;;;;;;;;766539;182;912468;-65
2023/07/03 02:34:42;;;;;;;9.30;5.87;;;;;;;;;;772670;181;914404;-65
2023/07/03 02:37:09;;;;;;;17.37;6.07;;;;;;;;;;765401;181;916032;-61
2023/07/03 02:39:34;;;;;;;10.10;7.07;;;;;;;;;;760222;182;949834;-63
2023/07/03 02:42:00;;;;;;;14.57;8.30;;;;;;;;;;767032;181;917614;-63
2023/07/03 02:44:25;;;;;;;27.83;6.70;;;;;;;;;;771134;181;920411;-64
2023/07/03 02:46:51;;;;;;;9.07;6.73;;;;;;;;;;765370;182;920136;-65
2023/07/03 02:49:17;;;;;;;9.03;6.30;;;;;;;;;;762824;181;919057;-64
2023/07/03 02:51:43;;;;;;;16.40;6.90;;;;;;;;;;769528;182;918876;-64
2023/07/03 02:54:09;;;;;;;15.70;8.93;;;;;;;;;;763419;182;920596;-63
2023/07/03 02:56:35;;;;;;;9.70;6.43;;;;;;;;;;762109;182;921006;-61
2023/07/03 02:59:00;;;;;;;10.37;6.60;;;;;;;;;;754726;185;920915;-61
2023/07/03 03:01:27;;;;;;;10.57;6.20;;;;;;;;;;756720;182;819739;-62
2023/07/03 03:03:52;;;;;;;10.00;6.70;;;;;;;;;;766507;182;919874;-62
2023/07/03 03:06:18;;;;;;;16.53;7.10;;;;;;;;;;768179;182;916352;-64
2023/07/03 03:08:45;;;;;;;16.57;6.63;;;;;;;;;;763688;182;916670;-64
2023/07/03 03:11:10;;;;;;;13.70;7.50;;;;;;;;;;765152;182;874692;-62
2023/07/03 03:13:35;;;;;;;19.37;7.83;;;;;;;;;;759325;182;919304;-64
2023/07/03 03:16:01;;;;;;;18.17;6.57;;;;;;;;;;761374;182;918789;-62
2023/07/03 03:18:27;;;;;;;13.70;6.63;;;;;;;;;;757866;182;918976;-62
2023/07/03 03:20:53;;;;;;;10.73;6.83;;;;;;;;;;763371;182;919008;-62
2023/07/03 03:23:19;;;;;;;11.17;7.00;;;;;;;;;;766323;182;919206;-64
2023/07/03 03:25:46;;;;;;;12.33;7.37;;;;;;;;;;761106;182;815109;-62
2023/07/03 03:28:10;;;;;;;19.03;6.83;;;;;;;;;;750722;184;919075;-63
2023/07/03 03:30:36;;;;;;;10.63;6.60;;;;;;;;;;761542;182;918666;-64
2023/07/03 03:33:02;;;;;;;15.33;8.23;;;;;;;;;;761585;181;917875;-64
2023/07/03 03:35:28;;;;;;;11.43;6.70;;;;;;;;;;765940;182;917232;-63
2023/07/03 03:37:54;;;;;;;11.60;6.87;;;;;;;;;;760878;182;939952;-62
2023/07/03 03:40:20;;;;;;;24.53;7.20;;;;;;;;;;758298;183;918809;-62
2023/07/03 03:42:46;;;;;;;15.93;6.80;;;;;;;;;;758997;182;920511;-64
2023/07/03 03:45:11;;;;;;;12.60;7.40;;;;;;;;;;764601;182;921470;-62
2023/07/03 03:47:37;;;;;;;10.25;6.93;;;;;;;;;;772171;182;917226;-62
2023/07/03 03:50:03;;;;;;;11.60;6.97;;;;;;;;;;765413;182;820892;-63
2023/07/03 03:52:29;;;;;;;18.93;7.00;;;;;;;;;;762000;182;918823;-63
2023/07/03 03:54:55;;;;;;;12.97;7.37;;;;;;;;;;764325;182;862213;-63
2023/07/03 03:57:21;;;;;;;13.73;7.53;;;;;;;;;;764003;182;817047;-63
2023/07/03 03:59:47;;;;;;;12.95;8.07;;;;;;;;;;764160;182;925464;-63
2023/07/03 04:02:13;;;;;;;13.43;7.10;;;;;;;;;;766169;183;918460;-62
2023/07/03 04:04:38;;;;;;;16.50;7.10;;;;;;;;;;762747;184;918747;-63
2023/07/03 04:07:04;;;;;;;11.43;7.30;;;;;;;;;;760331;181;916359;-63
2023/07/03 04:09:30;;;;;;;13.87;8.23;;;;;;;;;;762631;182;915862;-62
2023/07/03 04:11:56;;;;;;;8.90;7.00;;;;;;;;;;766305;182;911937;-63
2023/07/03 04:14:22;;;;;;;10.60;7.33;;;;;;;;;;758263;182;915597;-64
2023/07/03 04:16:48;;;;;;;13.80;7.57;;;;;;;;;;765456;182;921971;-63
2023/07/03 04:19:14;;;;;;;13.43;6.73;;;;;;;;;;768685;182;929925;-64
2023/07/03 04:21:40;;;;;;;11.57;8.27;;;;;;;;;;761971;182;919993;-65
2023/07/03 04:24:05;;;;;;;9.07;6.60;;;;;;;;;;764420;182;920351;-64
2023/07/03 04:26:31;;;;;;;12.30;7.20;;;;;;;;;;750898;182;800831;-64
2023/07/03 04:28:58;;;;;;;12.50;7.50;;;;;;;;;;756612;182;917402;-64
2023/07/03 04:31:23;;;;;;;12.27;8.03;;;;;;;;;;762287;182;919089;-64
2023/07/03 04:33:49;;;;;;;13.97;7.87;;;;;;;;;;764285;182;917478;-64
2023/07/03 04:36:17;;;;;;;15.07;8.20;;;;;;;;;;765510;182;918390;-65
2023/07/03 04:38:41;;;;;;;17.40;8.97;;;;;;;;;;763870;182;917694;-64
2023/07/03 04:41:07;;;;;;;11.10;7.57;;;;;;;;;;760394;182;918515;-64
2023/07/03 04:43:32;;;;;;;13.27;7.90;;;;;;;;;;757438;183;916632;-64
2023/07/03 04:46:03;;;;;;;11.23;7.30;;;;;;;;;;750783;184;918919;-64
2023/07/03 04:48:24;;;;;;;12.52;7.37;;;;;;;;;;758576;182;916600;-65
2023/07/03 04:50:50;;;;;;;16.43;7.47;;;;;;;;;;755411;182;918399;-65
2023/07/03 04:53:15;;;;;;;11.87;7.30;;;;;;;;;;757158;182;919534;-65
2023/07/03 04:55:41;;;;;;;13.60;7.03;;;;;;;;;;763312;181;922397;-65
2023/07/03 04:58:07;;;;;;;10.07;7.20;;;;;;;;;;763141;182;918707;-66
2023/07/03 05:00:33;;;;;;;12.77;7.37;;;;;;;;;;768424;182;818671;-66
2023/07/03 05:02:59;;;;;;;11.03;7.13;;;;;;;;;;752332;184;919055;-64
2023/07/03 05:05:25;;;;;;;9.30;7.17;;;;;;;;;;764607;182;924454;-65
2023/07/03 05:07:51;;;;;;;9.70;6.00;;;;;;;;;;768392;182;918579;-65
2023/07/03 05:10:17;;;;;;;10.00;5.83;;;;;;;;;;767098;179;816187;-64
2023/07/03 05:12:42;;;;;;;13.47;8.30;;;;;;;;;;748713;187;816680;-64
2023/07/03 05:15:09;;;;;;;11.73;7.80;;;;;;;;;;758211;182;919663;-66
2023/07/03 05:17:37;;;;;;;9.23;5.77;;;;;;;;;;766158;182;636379;-68
2023/07/03 05:20:00;;;;;;;9.07;6.50;;;;;;;;;;760132;182;895310;-65
2023/07/03 05:22:26;;;;;;;10.80;6.60;;;;;;;;;;749245;184;922972;-64
2023/07/03 05:24:52;;;;;;;12.77;6.57;;;;;;;;;;765759;182;918390;-64
2023/07/03 05:27:18;;;;;;;9.82;6.40;;;;;;;;;;762758;181;918378;-67
2023/07/03 05:29:44;;;;;;;10.60;6.30;;;;;;;;;;765862;181;921780;-64
2023/07/03 05:32:10;;;;;;;8.00;5.30;;;;;;;;;;767412;181;920192;-64
2023/07/03 05:34:38;;;;;;;9.97;6.70;;;;;;;;;;760230;182;918595;-67
2023/07/03 05:37:01;;;;;;;13.10;6.70;;;;;;;;;;763440;179;917357;-64
2023/07/03 05:39:27;;;;;;;15.40;6.30;;;;;;;;;;758401;182;814908;-66
2023/07/03 05:41:54;;;;;;;13.40;7.27;;;;;;;;;;752362;184;922788;-65
2023/07/03 05:44:20;;;;;;;10.00;6.73;;;;;;;;;;760745;182;920783;-65
2023/07/03 05:46:45;;;;;;;9.00;6.07;;;;;;;;;;762826;181;1125320;-65
2023/07/03 05:49:10;;;;;;;13.10;6.10;;;;;;;;;;762443;182;921804;-65
2023/07/03 05:51:36;;;;;;;9.87;5.90;;;;;;;;;;763216;182;920101;-67
2023/07/03 05:54:02;;;;;;;7.70;5.70;;;;;;;;;;758052;182;918313;-65
2023/07/03 05:56:28;;;;;;;10.03;5.00;;;;;;;;;;762117;181;918965;-63
2023/07/03 05:58:54;;;;;;;15.77;5.33;;;;;;;;;;766031;182;915577;-62
2023/07/03 06:01:20;;;;;;;12.63;5.80;;;;;;;;;;752676;186;858080;-65
2023/07/03 06:03:47;;;;;;;8.27;5.50;;;;;;;;;;764487;182;912045;-62
2023/07/03 06:06:12;;;;;;;9.43;5.17;;;;;;;;;;759753;182;812758;-66
2023/07/03 06:08:37;;;;;;;8.63;5.10;;;;;;;;;;756793;183;915019;-63
2023/07/03 06:11:04;;;;;;;12.70;5.73;;;;;;;;;;773721;181;916507;-66
2023/07/03 06:13:31;;;;;;;8.43;5.30;;;;;;;;;;758765;182;917114;-62
2023/07/03 06:15:56;;;;;;;8.63;5.70;;;;;;;;;;763209;181;918582;-63
2023/07/03 06:18:22;;;;;;;7.83;5.27;;;;;;;;;;764757;182;918394;-62
2023/07/03 06:20:49;;;;;;;8.80;5.23;;;;;;;;;;767760;182;916816;-64
2023/07/03 06:23:15;;;;;;;11.17;5.70;;;;;;;;;;765545;181;914869;-65
2023/07/03 06:25:41;;;;;;;11.40;5.70;;;;;;;;;;762154;182;846577;-63
2023/07/03 06:28:07;;;;;;;8.00;5.77;;;;;;;;;;771117;182;917255;-63
2023/07/03 06:30:33;;;;;;;9.83;5.70;;;;;;;;;;764758;182;918422;-63
2023/07/03 06:32:59;;;;;;;12.13;6.10;;;;;;;;;;755301;183;921561;-63
2023/07/03 06:35:25;;;;;;;9.53;5.43;;;;;;;;;;758688;184;915611;-67
2023/07/03 06:37:55;;;;;;;11.50;5.65;;;;;;;;;;760542;182;920289;-63
2023/07/03 06:40:19;;;;;;;9.13;5.50;;;;;;;;;;761896;182;919796;-66
2023/07/03 06:42:45;;;;;;;11.60;6.13;;;;;;;;;;760752;182;918826;-66
2023/07/03 06:45:11;;;;;;;12.47;6.13;;;;;;;;;;770297;182;910775;-63
2023/07/03 06:47:37;;;;;;;10.70;6.50;;;;;;;;;;765315;182;910668;-67
2023/07/03 06:50:03;;;;;;;13.10;6.37;;;;;;;;;;758663;183;921309;-67
2023/07/03 06:52:29;;;;;;;11.83;7.50;;;;;;;;;;768053;182;920131;-63
2023/07/03 06:54:54;;;;;;;13.23;7.97;;;;;;;;;;759612;182;920107;-66
2023/07/03 06:57:20;;;;;;;10.93;7.67;;;;;;;;;;764112;182;919581;-66
2023/07/03 06:59:46;;;;;;;9.90;6.90;;;;;;;;;;770034;182;918569;-65
2023/07/03 07:02:12;;;;;;;12.33;6.23;;;;;;;;;;760425;183;918593;-64
2023/07/03 07:04:38;;;;;;;11.13;7.30;;;;;;;;;;764834;181;919240;-65
2023/07/03 07:07:04;;;;;;;16.40;8.17;;;;;;;;;;760802;181;918682;-66
2023/07/03 07:09:29;;;;;;;15.80;7.50;;;;;;;;;;765566;182;917690;-65
2023/07/03 07:11:55;;;;;;;16.63;9.13;;;;;;;;;;760461;182;913520;-67
2023/07/03 07:14:21;;;;;;;14.30;8.70;;;;;;;;;;760078;180;933647;-64
2023/07/03 07:16:47;;;;;;;12.93;7.70;;;;;;;;;;767003;182;918766;-67
2023/07/03 07:19:13;;;;;;;17.73;9.30;;;;;;;;;;762555;182;918619;-65
2023/07/03 07:21:39;;;;;;;13.13;8.13;;;;;;;;;;763074;182;918492;-67
2023/07/03 07:24:11;;;;;;;17.67;8.53;;;;;;;;;;766063;182;922068;-67
2023/07/03 07:26:36;;;;;;;15.97;8.37;;;;;;;;;;765132;182;912413;-67
2023/07/03 07:29:03;;;;;;;17.20;9.67;;;;;;;;;;761748;183;914854;-65
2023/07/03 07:31:28;;;;;;;18.73;8.80;;;;;;;;;;762572;182;815793;-65
2023/07/03 07:33:54;;;;;;;13.83;9.93;;;;;;;;;;768129;182;915021;-67
2023/07/03 07:36:20;;;;;;;17.73;9.43;;;;;;;;;;763002;182;918454;-64
2023/07/03 07:38:46;;;;;;;13.50;8.90;;;;;;;;;;766237;182;916081;-64
2023/07/03 07:41:11;;;;;;;14.13;9.50;;;;;;;;;;767345;181;814693;-64
2023/07/03 07:43:37;;;;;;;14.00;9.13;;;;;;;;;;756817;184;920908;-66
2023/07/03 07:46:03;;;;;;;14.30;8.80;;;;;;;;;;764077;182;915210;-65
2023/07/03 07:48:29;;;;;;;11.50;8.60;;;;;;;;;;766688;179;818881;-64
2023/07/03 07:50:55;;;;;;;14.83;9.13;;;;;;;;;;766388;181;915812;-68
2023/07/03 07:53:21;;;;;;;16.57;10.87;;;;;;;;;;762216;182;626854;-65
2023/07/03 07:55:47;;;;;;;17.63;11.53;;;;;;;;;;768985;182;634298;-68
2023/07/03 07:58:12;;;;;;;14.37;10.10;;;;;;;;;;771511;182;620132;-65
2023/07/03 08:00:38;;;;;;;16.03;10.40;;;;;;;;;;763267;182;618729;-68
2023/07/03 08:03:04;;;;;;;21.53;10.60;;;;;;;;;;757602;182;715109;-65
2023/07/03 08:05:31;;;;;;;18.60;11.60;;;;;;;;;;764097;182;820805;-64
2023/07/03 08:07:56;;;;;;;16.00;11.37;;;;;;;;;;764400;182;819999;-64
2023/07/03 08:10:22;;;;;;;16.70;10.10;;;;;;;;;;761511;181;924983;-63
2023/07/03 08:12:48;;;;;;;20.33;12.03;;;;;;;;;;760721;182;916402;-63
2023/07/03 08:15:13;;;;;;;18.27;10.70;;;;;;;;;;756897;184;814708;-67
2023/07/03 08:17:39;;;;;;;21.83;12.07;;;;;;;;;;758324;181;926684;-67
2023/07/03 08:20:11;;;;;;;17.63;12.23;;;;;;;;;;767721;180;847928;-67
2023/07/03 08:22:34;;;;;;;22.80;12.13;;;;;;;;;;765720;182;918407;-62
2023/07/03 08:25:00;;;;;;;22.20;12.77;;;;;;;;;;769385;181;935743;-67
2023/07/03 08:27:26;;;;;;;18.30;12.37;;;;;;;;;;764333;182;817194;-66
2023/07/03 08:29:52;;;;;;;21.03;13.23;;;;;;;;;;767009;182;817291;-67
2023/07/03 08:32:19;;;;;;;21.17;12.13;;;;;;;;;;756426;182;917716;-67
2023/07/03 08:34:43;;;;;;;21.45;12.50;;;;;;;;;;763461;183;913214;-67
2023/07/03 08:37:09;;;;;;;21.77;12.17;;;;;;;;;;757612;183;920548;-63
2023/07/03 08:39:35;;;;;;;17.53;12.20;;;;;;;;;;756905;184;776724;-67
2023/07/03 08:42:01;;;;;;;18.93;11.50;;;;;;;;;;754126;182;918538;-63
2023/07/03 08:44:27;;;;;;;24.27;12.77;;;;;;;;;;765489;182;920341;-66
2023/07/03 08:46:53;;;;;;;26.17;13.03;;;;;;;;;;763687;182;917195;-62
2023/07/03 08:49:19;;;;;;;19.53;11.73;;;;;;;;;;761878;181;909737;-63
2023/07/03 08:51:44;;;;;;;18.23;11.37;;;;;;;;;;760502;182;909610;-63
2023/07/03 08:54:13;;;;;;;17.10;11.17;;;;;;;;;;753025;185;905520;-63
2023/07/03 08:56:39;;;;;;;21.27;11.63;;;;;;;;;;757004;182;881191;-66
2023/07/03 08:59:06;;;;;;;19.97;11.80;;;;;;;;;;761926;182;920862;-67
2023/07/03 09:01:51;;;;;;;19.43;11.37;;;;;;;;;;761183;182;921813;-67
2023/07/03 09:04:23;;;;;;;17.77;11.40;;;;;;;;;;758860;182;920667;-65
2023/07/03 09:06:53;;;;;;;18.00;10.90;;;;;;;;;;764051;182;860503;-64
2023/07/03 09:09:23;;;;;;;25.40;11.77;;;;;;;;;;769492;181;917554;-63
2023/07/03 09:11:48;;;;;;;15.83;11.00;;;;;;;;;;760153;181;921875;-66
2023/07/03 09:14:14;;;;;;;17.87;11.90;;;;;;;;;;764056;182;922882;-62
2023/07/03 09:16:41;;;;;;;20.13;12.33;;;;;;;;;;761849;182;919114;-62
2023/07/03 09:19:06;;;;;;;21.17;13.00;;;;;;;;;;760368;182;940054;-67
2023/07/03 09:21:32;;;;;;;15.43;11.13;;;;;;;;;;761811;182;919861;-67
2023/07/03 09:23:57;;;;;;;18.53;11.33;;;;;;;;;;770316;183;814600;-61
2023/07/03 09:26:23;;;;;;;20.13;13.33;;;;;;;;;;762096;182;919137;-63
2023/07/03 09:28:50;;;;;;;20.37;12.57;;;;;;;;;;762983;182;918212;-62
2023/07/03 09:31:16;;;;;;;21.60;12.95;;;;;;;;;;760013;182;922226;-61
2023/07/03 09:33:42;;;;;;;19.83;11.47;;;;;;;;;;768253;182;914052;-66
2023/07/03 09:36:14;;;;;;;20.33;12.52;;;;;;;;;;766106;180;939689;-61
2023/07/03 09:38:40;;;;;;;22.30;13.20;;;;;;;;;;763320;181;920867;-61
2023/07/03 09:41:05;;;;;;;22.17;14.00;;;;;;;;;;772818;182;860098;-61
2023/07/03 09:43:31;;;;;;;19.07;12.83;;;;;;;;;;758399;182;918908;-61
2023/07/03 09:46:01;;;;;;;20.40;13.23;;;;;;;;;;762764;181;916408;-67
2023/07/03 09:48:27;;;;;;;17.70;12.60;;;;;;;;;;760808;181;895190;-66
2023/07/03 09:50:53;;;;;;;20.90;13.47;;;;;;;;;;768105;182;919009;-67
2023/07/03 09:53:19;;;;;;;16.13;11.30;;;;;;;;;;761804;181;914668;-67
2023/07/03 09:55:44;;;;;;;18.20;11.23;;;;;;;;;;764851;181;812141;-66
2023/07/03 09:58:11;;;;;;;19.83;11.73;;;;;;;;;;769233;182;917435;-61
2023/07/03 10:00:37;;;;;;;22.30;13.40;;;;;;;;;;757895;182;909253;-66
2023/07/03 10:03:03;;;;;;;19.77;11.47;;;;;;;;;;759810;181;919802;-66
2023/07/03 10:05:29;;;;;;;17.70;12.80;;;;;;;;;;749471;184;919676;-66
2023/07/03 10:07:55;;;;;;;18.10;12.60;;;;;;;;;;762981;182;917989;-66
2023/07/03 10:10:22;;;;;;;16.37;12.53;;;;;;;;;;768367;182;921207;-62
2023/07/03 10:12:49;;;;;;;18.30;12.87;;;;;;;;;;763860;182;919794;-64
2023/07/03 10:15:15;;;;;;;19.70;11.97;;;;;;;;;;773395;182;629178;-62
2023/07/03 10:17:42;;;;;;;19.73;12.50;;;;;;;;;;764715;182;631297;-67
2023/07/03 10:20:09;;;;;;;19.07;12.17;;;;;;;;;;767711;179;646925;-67
2023/07/03 10:22:34;;;;;;;20.10;12.13;;;;;;;;;;766453;182;627247;-65
2023/07/03 10:25:01;;;;;;;23.20;12.80;;;;;;;;;;769707;182;626107;-61
2023/07/03 10:27:26;;;;;;;22.67;12.67;;;;;;;;;;769286;182;633986;-62
2023/07/03 10:29:53;;;;;;;18.90;12.17;;;;;;;;;;767683;182;620215;-66
2023/07/03 10:32:17;;;;;;;18.90;12.87;;;;;;;;;;769142;182;626063;-65
2023/07/03 10:34:49;;;;;;;18.73;11.80;;;;;;;;;;766576;181;642117;-62
2023/07/03 10:37:15;;;;;;;21.43;12.23;;;;;;;;;;765521;182;624585;-62
2023/07/03 10:39:41;;;;;;;20.65;12.77;;;;;;;;;;769409;182;631055;-64
2023/07/03 10:42:07;;;;;;;22.90;13.17;;;;;;;;;;765089;180;625370;-62
2023/07/03 10:44:33;;;;;;;18.10;12.30;;;;;;;;;;775348;180;619605;-67
2023/07/03 10:47:18;;;;;;;17.20;11.60;;;;;;;;;;770481;180;623058;-68
2023/07/03 10:49:43;;;;;;;28.97;12.93;;;;;;;;;;761370;182;618376;-68
2023/07/03 10:52:23;;;;;;;23.57;12.67;;;;;;;;;;770781;182;632773;-61
2023/07/03 10:54:54;;;;;;;18.73;12.23;;;;;;;;;;770293;182;624455;-62
2023/07/03 10:57:19;;;;;;;20.13;11.27;;;;;;;;;;762878;182;633882;-68
2023/07/03 10:59:45;;;;;;;19.50;11.13;;;;;;;;;;765066;182;632974;-68
2023/07/03 11:02:17;;;;;;;20.93;12.67;;;;;;;;;;770379;182;629341;-67
2023/07/03 11:05:02;;;;;;;21.47;12.90;;;;;;;;;;772198;182;619528;-68
2023/07/03 11:07:32;;;;;;;18.40;11.35;;;;;;;;;;754742;183;919436;-68
2023/07/03 11:10:00;;;;;;;23.90;13.13;;;;;;;;;;753560;182;918867;-69
2023/07/03 11:12:27;;;;;;;17.60;11.60;;;;;;;;;;760344;182;924024;-69
2023/07/03 11:14:55;;;;;;;16.93;12.03;;;;;;;;;;757214;181;915789;-62
2023/07/03 11:17:26;;;;;;;19.80;12.47;;;;;;;;;;769926;181;916837;-68
2023/07/03 11:19:58;;;;;;;18.90;12.30;;;;;;;;;;761693;182;915763;-63
2023/07/03 11:22:24;;;;;;;21.20;12.87;;;;;;;;;;765907;181;716238;-68
2023/07/03 11:24:50;;;;;;;24.13;12.77;;;;;;;;;;764699;181;931371;-63
2023/07/03 11:27:30;;;;;;;22.57;12.73;;;;;;;;;;764527;182;917143;-63
2023/07/03 11:29:58;;;;;;;16.97;11.90;;;;;;;;;;757180;185;868180;-62
2023/07/03 11:32:23;;;;;;;18.57;13.63;;;;;;;;;;752194;182;733821;-68
2023/07/03 11:34:48;;;;;;;16.10;11.03;;;;;;;;;;758632;182;894941;-62
2023/07/03 11:37:30;;;;;;;17.87;11.13;;;;;;;;;;765639;182;918478;-64
2023/07/03 11:39:55;;;;;;;16.23;11.97;;;;;;;;;;766046;182;635582;-68
2023/07/03 11:42:22;;;;;;;16.93;12.37;;;;;;;;;;763758;182;629410;-68
2023/07/03 11:44:48;;;;;;;17.60;12.70;;;;;;;;;;762117;182;910016;-63
2023/07/03 11:47:16;;;;;;;18.17;12.30;;;;;;;;;;771152;182;802286;-69
2023/07/03 11:49:42;;;;;;;20.23;13.10;;;;;;;;;;765470;182;919424;-62
2023/07/03 11:52:08;;;;;;;18.23;12.10;;;;;;;;;;766453;182;666276;-68
2023/07/03 11:54:34;;;;;;;14.90;12.13;;;;;;;;;;766984;182;918951;-62
2023/07/03 11:57:04;;;;;;;19.23;12.53;;;;;;;;;;766713;182;919155;-69
2023/07/03 11:59:30;;;;;;;21.10;13.20;;;;;;;;;;768110;181;911451;-69
2023/07/03 12:02:16;;;;;;;17.93;12.80;;;;;;;;;;759483;182;936192;-67
2023/07/03 12:04:51;;;;;;;20.57;14.33;;;;;;;;;;758611;182;945278;-62
2023/07/03 12:07:32;;;;;;;19.27;12.83;;;;;;;;;;743252;184;920269;-63
2023/07/03 12:10:04;;;;;;;17.87;12.33;;;;;;;;;;761823;182;918235;-63
2023/07/03 12:12:33;;;;;;;15.53;11.00;;;;;;;;;;769165;181;917760;-63
2023/07/03 12:14:56;;;;;;;16.40;11.47;;;;;;;;;;756251;183;918740;-64
2023/07/03 12:17:26;;;;;;;22.33;11.27;;;;;;;;;;754524;182;920024;-64
2023/07/03 12:19:53;;;;;;;17.63;12.27;;;;;;;;;;754646;182;918633;-63
2023/07/03 12:22:19;;;;;;;18.53;11.97;;;;;;;;;;768922;182;919260;-69
2023/07/03 12:24:45;;;;;;;20.13;11.43;;;;;;;;;;759848;182;916259;-62
2023/07/03 12:27:10;;;;;;;19.13;10.83;;;;;;;;;;761924;181;980934;-61
2023/07/03 12:29:36;;;;;;;18.20;11.30;;;;;;;;;;757209;184;915667;-61
2023/07/03 12:32:07;;;;;;;23.03;12.00;;;;;;;;;;763440;182;812467;-62
2023/07/03 12:34:32;;;;;;;16.20;11.73;;;;;;;;;;755847;183;870886;-67
2023/07/03 12:36:59;;;;;;;16.57;12.03;;;;;;;;;;765116;181;919325;-68
2023/07/03 12:39:24;;;;;;;17.53;10.63;;;;;;;;;;764722;182;717635;-69
2023/07/03 12:41:50;;;;;;;21.60;11.87;;;;;;;;;;754938;184;920154;-68
2023/07/03 12:44:16;;;;;;;14.50;11.23;;;;;;;;;;764206;181;815199;-62
2023/07/03 12:46:42;;;;;;;21.73;11.10;;;;;;;;;;764506;183;917139;-69
2023/07/03 12:49:08;;;;;;;19.53;11.93;;;;;;;;;;764655;182;920084;-68
2023/07/03 12:51:36;;;;;;;22.07;10.70;;;;;;;;;;765906;182;760718;-60
2023/07/03 12:54:01;;;;;;;19.63;11.60;;;;;;;;;;765212;182;909678;-62
2023/07/03 12:56:29;;;;;;;32.00;11.30;;;;;;;;;;753325;183;854605;-60
2023/07/03 12:58:54;;;;;;;16.50;11.47;;;;;;;;;;752730;184;1009028;-67
2023/07/03 13:01:20;;;;;;;15.67;10.20;;;;;;;;;;744703;185;905783;-61
2023/07/03 13:03:45;;;;;;;13.00;10.03;;;;;;;;;;750685;186;915681;-68
2023/07/03 13:06:15;;;;;;;12.30;8.77;;;;;;;;;;767291;180;920865;-61
2023/07/03 13:08:41;;;;;;;15.40;10.60;;;;;;;;;;764907;180;912893;-66
2023/07/03 13:11:08;;;;;;;15.77;10.15;;;;;;;;;;765251;182;921259;-61
2023/07/03 13:13:33;;;;;;;15.40;9.70;;;;;;;;;;765937;181;916821;-63
2023/07/03 13:15:59;;;;;;;18.00;10.43;;;;;;;;;;763938;181;916375;-68
2023/07/03 13:18:25;;;;;;;16.33;11.07;;;;;;;;;;763068;182;918847;-62
2023/07/03 13:20:53;;;;;;;13.63;9.63;;;;;;;;;;772033;182;920518;-69
2023/07/03 13:23:19;;;;;;;17.43;10.70;;;;;;;;;;760578;183;919153;-62
2023/07/03 13:25:53;;;;;;;15.50;10.77;;;;;;;;;;760428;183;915762;-63
2023/07/03 13:28:19;;;;;;;14.57;11.27;;;;;;;;;;758309;182;919160;-68
2023/07/03 13:30:45;;;;;;;13.97;9.57;;;;;;;;;;766358;182;919812;-62
2023/07/03 13:33:10;;;;;;;18.73;12.33;;;;;;;;;;761241;182;918962;-68
2023/07/03 13:35:36;;;;;;;17.77;10.50;;;;;;;;;;759575;182;920500;-63
2023/07/03 13:38:08;;;;;;;13.43;10.13;;;;;;;;;;762679;182;841579;-62
2023/07/03 13:40:34;;;;;;;14.67;10.17;;;;;;;;;;753905;182;922700;-68
2023/07/03 13:43:01;;;;;;;15.73;11.03;;;;;;;;;;763361;182;917984;-68
2023/07/03 13:45:25;;;;;;;16.93;10.37;;;;;;;;;;758531;180;920123;-67
2023/07/03 13:47:52;;;;;;;16.10;9.97;;;;;;;;;;767076;182;820343;-68
2023/07/03 13:50:17;;;;;;;14.03;10.33;;;;;;;;;;756332;182;917444;-68
2023/07/03 13:52:43;;;;;;;17.20;11.40;;;;;;;;;;761304;181;917811;-68
2023/07/03 13:55:09;;;;;;;33.77;11.90;;;;;;;;;;764208;181;918485;-68
2023/07/03 13:57:35;;;;;;;12.67;8.50;;;;;;;;;;758883;181;1640403;-68
2023/07/03 14:00:01;;;;;;;13.10;9.10;;;;;;;;;;753321;181;1688329;-67
2023/07/03 14:02:27;;;;;;;13.30;9.23;;;;;;;;;;751925;184;910409;-67
2023/07/03 14:04:53;;;;;;;14.87;9.50;;;;;;;;;;754083;181;928731;-68
2023/07/03 14:07:20;;;;;;;16.73;10.77;;;;;;;;;;762144;181;1297239;-67
2023/07/03 14:09:46;;;;;;;16.93;10.23;;;;;;;;;;761698;182;931392;-67